Time;durP1;ratioP1;P1;durP2;ratioP2;P2;SDS_P1;SDS_P2;PMS_P1;PMS_P2;Temp;Humidity;BMP_temperature;BMP_pressure;BME280_temperature;BME280_humidity;BME280_pressure;Samples;Min_cycle;Max_cycle;Signal;HPM_P1;HPM_P2
2022/06/20 00:00:06;;;;;;;3.47;1.10;;;14.00;99.90;;;;;;5051716;28;20047;-76
2022/06/20 00:02:31;;;;;;;5.07;1.17;;;14.00;99.90;;;;;;5066754;28;20459;-76
2022/06/20 00:05:01;;;;;;;5.95;0.90;;;14.00;99.90;;;;;;5085553;28;20040;-76
2022/06/20 00:07:27;;;;;;;6.50;1.23;;;14.00;99.90;;;;;;5084362;28;20052;-76
2022/06/20 00:09:52;;;;;;;12.98;1.65;;;14.60;99.90;;;;;;5066490;28;20129;-76
2022/06/20 00:12:22;;;;;;;5.68;1.35;;;14.00;99.90;;;;;;5047842;28;20039;-75
2022/06/20 00:14:51;;;;;;;7.90;1.60;;;14.00;99.90;;;;;;5084962;28;20047;-75
2022/06/20 00:17:17;;;;;;;3.67;1.25;;;14.70;99.90;;;;;;5063343;28;20058;-76
2022/06/20 00:19:43;;;;;;;10.65;1.65;;;13.90;99.90;;;;;;5048515;28;20044;-76
2022/06/20 00:22:11;;;;;;;5.43;0.95;;;14.00;99.90;;;;;;5084203;28;20079;-76
2022/06/20 00:24:37;;;;;;;6.00;1.10;;;14.00;99.90;;;;;;5067530;28;20050;-77
2022/06/20 00:27:06;;;;;;;9.95;1.33;;;14.00;99.90;;;;;;5086588;28;20036;-78
2022/06/20 00:29:40;;;;;;;4.53;0.90;;;14.00;99.90;;;;;;5084078;28;20050;-77
2022/06/20 00:32:08;;;;;;;8.07;0.95;;;13.90;99.90;;;;;;5057032;28;20052;-78
2022/06/20 00:34:34;;;;;;;6.70;1.10;;;13.90;99.90;;;;;;5054285;28;20039;-77
2022/06/20 00:37:00;;;;;;;6.80;1.38;;;13.90;99.90;;;;;;5069076;28;20036;-78
2022/06/20 00:39:26;;;;;;;8.25;1.50;;;15.00;99.90;;;;;;5068986;28;20046;-78
2022/06/20 00:41:52;;;;;;;5.40;1.80;;;13.90;99.90;;;;;;5064957;28;20075;-77
2022/06/20 00:44:41;;;;;;;9.90;1.58;;;14.70;99.90;;;;;;5065102;28;20036;-77
2022/06/20 00:47:11;;;;;;;6.97;0.85;;;14.00;99.90;;;;;;5085303;28;20040;-75
2022/06/20 00:49:51;;;;;;;5.10;1.38;;;14.00;99.90;;;;;;5066289;28;20044;-76
2022/06/20 00:52:36;;;;;;;7.53;1.63;;;13.90;99.90;;;;;;5088429;28;20036;-75
2022/06/20 00:55:17;;;;;;;5.70;1.02;;;13.90;99.90;;;;;;5065642;28;20392;-76
2022/06/20 00:57:51;;;;;;;6.35;1.65;;;13.80;99.90;;;;;;5065299;28;20070;-76
2022/06/20 01:00:22;;;;;;;8.05;1.45;;;13.80;99.90;;;;;;5068938;28;20562;-76
2022/06/20 01:02:51;;;;;;;6.10;1.38;;;14.90;99.90;;;;;;5049639;28;20550;-76
2022/06/20 01:05:23;;;;;;;5.10;1.05;;;13.80;99.90;;;;;;5067637;28;20051;-76
2022/06/20 01:08:01;;;;;;;6.57;1.25;;;13.70;99.90;;;;;;5050094;28;20399;-75
2022/06/20 01:10:32;;;;;;;6.72;1.08;;;13.60;99.90;;;;;;5082902;28;20084;-76
2022/06/20 01:13:03;;;;;;;6.53;1.25;;;13.60;99.90;;;;;;5082642;28;20090;-76
2022/06/20 01:15:40;;;;;;;8.32;1.73;;;13.60;99.90;;;;;;5063210;28;20610;-76
2022/06/20 01:18:16;;;;;;;7.25;1.50;;;13.50;99.90;;;;;;5048337;28;20075;-75
2022/06/20 01:20:44;;;;;;;3.40;1.08;;;13.40;99.90;;;;;;5049109;28;20128;-75
2022/06/20 01:23:24;;;;;;;6.65;1.45;;;13.40;99.90;;;;;;5081894;28;20055;-76
2022/06/20 01:26:15;;;;;;;4.75;1.13;;;13.40;99.90;;;;;;5068385;28;20048;-76
2022/06/20 01:28:45;;;;;;;6.20;0.90;;;13.40;99.90;;;;;;5046210;28;20040;-75
2022/06/20 01:31:14;;;;;;;3.85;1.05;;;13.30;99.90;;;;;;5084849;28;20033;-76
2022/06/20 01:33:41;;;;;;;4.25;1.13;;;13.80;99.90;;;;;;5068143;28;20046;-77
2022/06/20 01:38:51;;;;;;;8.70;1.15;;;13.30;99.90;;;;;;5063945;28;20044;-77
2022/06/20 01:44:04;;;;;;;5.60;1.00;;;13.20;99.90;;;;;;5084711;28;20044;-76
2022/06/20 01:46:33;;;;;;;8.05;1.42;;;13.20;99.90;;;;;;5064967;28;20036;-76
2022/06/20 01:49:22;;;;;;;9.27;1.10;;;13.30;99.90;;;;;;5083393;28;20044;-76
2022/06/20 01:52:16;;;;;;;5.70;1.70;;;13.30;99.90;;;;;;5065867;28;20427;-76
2022/06/20 01:54:54;;;;;;;8.30;1.30;;;13.20;99.90;;;;;;5041505;28;20248;-76
2022/06/20 01:57:21;;;;;;;5.28;1.00;;;13.20;99.90;;;;;;5086146;28;20427;-76
2022/06/20 01:59:56;;;;;;;5.47;1.08;;;13.10;99.90;;;;;;5066963;28;20345;-76
2022/06/20 02:02:22;;;;;;;4.20;1.00;;;12.90;99.90;;;;;;5084108;28;20039;-76
2022/06/20 02:04:48;;;;;;;4.78;1.17;;;13.00;99.90;;;;;;5050455;28;20062;-76
2022/06/20 02:07:15;;;;;;;6.15;1.35;;;13.00;99.90;;;;;;5046576;28;20043;-77
2022/06/20 02:09:41;;;;;;;11.20;1.63;;;13.20;99.90;;;;;;5065510;28;20040;-76
2022/06/20 02:12:10;;;;;;;5.50;1.33;;;13.00;99.90;;;;;;5065078;28;20040;-75
2022/06/20 02:14:39;;;;;;;4.07;1.10;;;13.00;99.90;;;;;;5084465;28;20536;-75
2022/06/20 02:17:10;;;;;;;4.60;1.30;;;13.00;99.90;;;;;;5078204;28;20071;-76
2022/06/20 02:19:44;;;;;;;7.32;1.48;;;13.00;99.90;;;;;;5067213;28;20032;-75
2022/06/20 02:22:10;;;;;;;9.10;1.50;;;13.00;99.90;;;;;;5082749;28;20218;-75
2022/06/20 02:24:40;;;;;;;6.57;0.98;;;13.00;99.90;;;;;;5049895;28;20480;-76
2022/06/20 02:27:12;;;;;;;3.40;0.90;;;12.90;99.90;;;;;;5085293;28;20036;-75
2022/06/20 02:29:38;;;;;;;7.88;1.48;;;12.90;99.90;;;;;;5050417;28;20083;-75
2022/06/20 02:32:19;;;;;;;8.25;1.05;;;13.10;99.90;;;;;;5048397;28;20070;-76
2022/06/20 02:34:45;;;;;;;9.98;1.05;;;12.90;99.90;;;;;;5084779;28;20047;-76
2022/06/20 02:37:17;;;;;;;5.82;0.85;;;12.90;99.90;;;;;;5068503;28;20089;-76
2022/06/20 02:39:44;;;;;;;9.48;1.80;;;12.90;99.90;;;;;;5064813;28;20044;-76
2022/06/20 02:42:29;;;;;;;6.93;1.17;;;14.30;99.90;;;;;;5066110;28;20048;-76
2022/06/20 02:44:56;;;;;;;4.68;0.68;;;12.80;99.90;;;;;;5067333;28;20048;-76
2022/06/20 02:47:23;;;;;;;11.20;1.35;;;13.90;99.90;;;;;;5066878;28;20119;-75
2022/06/20 02:49:52;;;;;;;8.18;1.48;;;12.80;99.90;;;;;;5045883;28;20136;-76
2022/06/20 02:52:23;;;;;;;4.50;1.23;;;13.70;99.90;;;;;;5095085;28;20040;-75
2022/06/20 02:54:51;;;;;;;6.75;1.27;;;12.80;99.90;;;;;;5069724;28;20070;-76
2022/06/20 02:57:27;;;;;;;2.67;0.95;;;13.40;99.90;;;;;;5065648;28;20033;-75
2022/06/20 02:59:55;;;;;;;9.57;1.80;;;12.70;99.90;;;;;;5067036;28;20131;-76
2022/06/20 03:02:29;;;;;;;9.95;1.40;;;13.50;99.90;;;;;;5054034;28;20435;-76
2022/06/20 03:04:55;;;;;;;6.05;1.30;;;12.70;99.90;;;;;;5067951;28;20054;-76
2022/06/20 03:07:29;;;;;;;7.10;1.10;;;12.70;99.90;;;;;;5071820;28;20078;-76
2022/06/20 03:10:03;;;;;;;9.43;1.38;;;12.70;99.90;;;;;;5068723;28;20105;-75
2022/06/20 03:12:31;;;;;;;11.75;1.38;;;12.70;99.90;;;;;;5079823;28;20040;-75
2022/06/20 03:15:00;;;;;;;6.15;1.70;;;13.70;99.90;;;;;;5068226;28;20028;-75
2022/06/20 03:17:26;;;;;;;9.43;1.48;;;12.70;99.90;;;;;;5053414;28;20040;-75
2022/06/20 03:19:57;;;;;;;8.55;1.55;;;12.70;99.90;;;;;;5068768;28;21316;-76
2022/06/20 03:22:28;;;;;;;7.43;1.58;;;14.00;99.90;;;;;;5068163;28;20051;-76
2022/06/20 03:24:55;;;;;;;3.28;1.00;;;12.50;99.90;;;;;;5050120;28;20051;-76
2022/06/20 03:27:30;;;;;;;8.40;2.05;;;12.60;99.90;;;;;;5065906;28;20041;-76
2022/06/20 03:30:01;;;;;;;4.60;1.48;;;12.30;99.90;;;;;;5087504;28;20054;-76
2022/06/20 03:32:27;;;;;;;4.68;0.82;;;12.50;99.90;;;;;;5051204;28;20093;-75
2022/06/20 03:34:53;;;;;;;3.35;1.17;;;13.70;99.90;;;;;;5053487;28;20044;-76
2022/06/20 03:37:25;;;;;;;6.07;1.35;;;12.50;99.90;;;;;;5069550;28;20066;-80
2022/06/20 03:39:51;;;;;;;9.13;1.55;;;12.40;99.90;;;;;;5069497;28;20052;-75
2022/06/20 03:42:17;;;;;;;5.88;1.45;;;12.50;99.90;;;;;;5067619;28;20035;-76
2022/06/20 03:44:49;;;;;;;5.68;1.08;;;12.40;99.90;;;;;;5070222;28;20038;-77
2022/06/20 03:47:35;;;;;;;3.75;1.50;;;12.50;99.90;;;;;;5070545;28;20492;-75
2022/06/20 03:50:32;;;;;;;5.78;1.13;;;12.40;99.90;;;;;;5070416;28;20100;-75
2022/06/20 03:53:12;;;;;;;5.22;1.20;;;12.40;99.90;;;;;;5067029;28;20059;-75
2022/06/20 03:55:38;;;;;;;7.28;1.02;;;12.40;99.90;;;;;;5069691;28;20043;-75
2022/06/20 03:58:09;;;;;;;3.45;1.10;;;12.40;99.90;;;;;;5069325;28;20040;-75
2022/06/20 04:01:01;;;;;;;10.63;2.17;;;12.40;99.90;;;;;;5069184;28;20039;-74
2022/06/20 04:03:52;;;;;;;4.65;1.40;;;12.40;99.90;;;;;;5057681;28;20040;-76
2022/06/20 04:06:43;;;;;;;6.78;1.55;;;13.30;99.90;;;;;;5067901;28;20040;-74
2022/06/20 04:12:44;;;;;;;3.65;1.45;;;12.40;99.90;;;;;;5084684;28;20344;-75
2022/06/20 04:15:52;;;;;;;7.68;1.52;;;12.40;99.90;;;;;;5068956;28;20047;-75
2022/06/20 04:18:27;;;;;;;6.47;2.08;;;12.40;99.90;;;;;;5048949;28;20127;-74
2022/06/20 04:21:09;;;;;;;6.75;1.55;;;12.40;99.90;;;;;;5082068;28;20048;-76
2022/06/20 04:23:47;;;;;;;7.90;1.58;;;12.30;99.90;;;;;;5051370;28;20530;-75
2022/06/20 04:26:17;;;;;;;5.82;1.65;;;12.30;99.90;;;;;;5051887;28;20194;-75
2022/06/20 04:29:12;;;;;;;10.88;2.58;;;12.70;99.90;;;;;;5072335;28;20059;-76
2022/06/20 04:31:44;;;;;;;8.95;1.42;;;11.60;99.90;;;;;;5058694;28;20127;-75
2022/06/20 04:34:52;;;;;;;6.28;1.90;;;13.00;99.90;;;;;;5067124;28;20039;-75
2022/06/20 04:37:28;;;;;;;8.45;1.73;;;12.30;99.90;;;;;;4995838;28;20441;-76
2022/06/20 04:39:57;;;;;;;7.00;1.88;;;12.40;99.90;;;;;;5076837;28;20105;-76
2022/06/20 04:42:43;;;;;;;9.65;2.35;;;13.60;99.90;;;;;;5065551;28;20077;-76
2022/06/20 04:45:18;;;;;;;8.32;2.05;;;12.30;99.90;;;;;;5067586;28;20105;-76
2022/06/20 04:47:50;;;;;;;9.02;2.17;;;11.40;99.90;;;;;;5066313;28;20040;-75
2022/06/20 04:50:25;;;;;;;11.88;2.95;;;14.00;99.90;;;;;;5050309;28;20098;-75
2022/06/20 04:52:55;;;;;;;11.07;2.53;;;13.30;99.90;;;;;;5084134;28;21255;-75
2022/06/20 04:55:26;;;;;;;12.63;2.67;;;12.30;99.90;;;;;;5050133;28;20127;-82
2022/06/20 04:57:54;;;;;;;13.95;2.00;;;12.30;99.90;;;;;;5069719;28;20076;-81
2022/06/20 05:00:32;;;;;;;4.90;1.45;;;12.30;99.90;;;;;;5071114;28;20485;-80
2022/06/20 05:02:58;;;;;;;8.05;2.13;;;12.30;99.90;;;;;;5064863;28;20040;-80
2022/06/20 05:05:27;;;;;;;7.13;2.38;;;12.30;99.90;;;;;;5052144;28;20047;-79
2022/06/20 05:07:53;;;;;;;8.18;2.22;;;12.40;99.90;;;;;;5068810;28;20496;-81
2022/06/20 05:10:29;;;;;;;8.80;2.80;;;13.60;99.90;;;;;;5068585;28;20048;-78
2022/06/20 05:13:01;;;;;;;9.23;2.10;;;12.30;99.90;;;;;;5070334;28;20048;-77
2022/06/20 05:15:43;;;;;;;10.25;3.17;;;12.40;99.90;;;;;;5066879;28;20032;-78
2022/06/20 05:18:17;;;;;;;12.60;3.30;;;13.20;99.90;;;;;;5085601;28;20055;-78
2022/06/20 05:20:44;;;;;;;9.80;2.00;;;12.50;99.90;;;;;;5085175;28;20032;-74
2022/06/20 05:23:27;;;;;;;9.10;2.33;;;12.50;99.90;;;;;;5087660;28;20083;-75
2022/06/20 05:25:59;;;;;;;11.50;2.53;;;13.20;99.90;;;;;;5064590;28;20058;-74
2022/06/20 05:28:26;;;;;;;6.47;2.28;;;13.70;99.90;;;;;;5051670;28;20098;-75
2022/06/20 05:30:52;;;;;;;15.73;9.75;;;14.20;99.90;;;;;;5067568;28;20085;-75
2022/06/20 05:33:34;;;;;;;18.13;7.25;;;13.60;99.90;;;;;;5087728;28;20048;-74
2022/06/20 05:36:29;;;;;;;17.70;5.03;;;12.80;99.90;;;;;;4361041;28;10000833;-78
2022/06/20 05:39:04;;;;;;;9.15;2.80;;;12.80;99.90;;;;;;5062421;28;20039;-77
2022/06/20 05:41:30;;;;;;;15.00;3.33;;;12.90;99.90;;;;;;5065710;28;20039;-75
2022/06/20 05:43:56;;;;;;;9.52;2.97;;;13.60;99.90;;;;;;5067294;28;20042;-74
2022/06/20 05:46:44;;;;;;;13.85;4.35;;;13.00;99.90;;;;;;5051384;28;20044;-75
2022/06/20 05:49:17;;;;;;;9.90;4.78;;;14.50;99.90;;;;;;5084038;28;20139;-74
2022/06/20 05:51:44;;;;;;;14.68;4.13;;;13.10;99.90;;;;;;5067191;28;20036;-75
2022/06/20 05:54:16;;;;;;;11.07;2.85;;;13.10;99.90;;;;;;5050365;28;20434;-77
2022/06/20 05:56:47;;;;;;;15.93;3.58;;;13.10;99.90;;;;;;5086379;28;20036;-76
2022/06/20 05:59:33;;;;;;;14.30;3.78;;;13.20;99.90;;;;;;5050995;28;20036;-76
2022/06/20 06:02:10;;;;;;;11.73;3.20;;;13.20;99.90;;;;;;5052294;28;20078;-77
2022/06/20 06:05:04;;;;;;;13.20;3.53;;;13.30;99.90;;;;;;5068207;28;20043;-76
2022/06/20 06:07:45;;;;;;;10.75;2.58;;;13.30;99.90;;;;;;5061917;28;20051;-76
2022/06/20 06:10:33;;;;;;;11.65;3.00;;;14.00;99.90;;;;;;5067228;28;20052;-77
2022/06/20 06:13:05;;;;;;;10.75;2.85;;;13.50;99.90;;;;;;5064333;28;20066;-77
2022/06/20 06:15:34;;;;;;;8.82;2.90;;;13.60;99.90;;;;;;5071399;28;20052;-77
2022/06/20 06:18:07;;;;;;;14.73;5.60;;;14.40;99.90;;;;;;5085149;28;20066;-79
2022/06/20 06:20:36;;;;;;;13.23;3.40;;;13.70;99.90;;;;;;5068778;28;20028;-78
2022/06/20 06:23:08;;;;;;;13.70;3.63;;;13.80;99.90;;;;;;5080543;28;20087;-78
2022/06/20 06:25:37;;;;;;;9.88;3.05;;;13.80;99.90;;;;;;5066897;28;20058;-79
2022/06/20 06:28:14;;;;;;;17.88;3.40;;;13.90;99.90;;;;;;5047805;28;20043;-77
2022/06/20 06:30:45;;;;;;;9.80;3.08;;;14.10;99.90;;;;;;5084435;28;20085;-76
2022/06/20 06:33:35;;;;;;;9.05;3.13;;;13.90;99.90;;;;;;5076092;28;20478;-78
2022/06/20 06:36:09;;;;;;;8.27;2.47;;;14.00;99.90;;;;;;5054009;28;20052;-78
2022/06/20 06:38:46;;;;;;;9.00;3.00;;;14.00;99.90;;;;;;5059094;28;20040;-77
2022/06/20 06:41:29;;;;;;;10.90;2.97;;;14.10;99.90;;;;;;5104838;28;20225;-76
2022/06/20 06:43:57;;;;;;;11.98;3.13;;;14.10;99.90;;;;;;5071940;28;20048;-76
2022/06/20 06:46:36;;;;;;;15.07;3.30;;;14.10;99.90;;;;;;5056922;28;20036;-77
2022/06/20 06:49:28;;;;;;;7.80;2.42;;;14.30;99.90;;;;;;5071140;28;20059;-77
2022/06/20 06:52:07;;;;;;;10.25;3.58;;;14.40;99.90;;;;;;5069693;28;20040;-76
2022/06/20 06:54:42;;;;;;;10.68;3.45;;;14.40;99.90;;;;;;5053248;28;20047;-74
2022/06/20 06:57:15;;;;;;;8.38;2.22;;;14.80;99.90;;;;;;5054936;28;20052;-76
2022/06/20 06:59:48;;;;;;;11.55;2.03;;;14.40;99.90;;;;;;5055850;28;20534;-76
2022/06/20 07:02:21;;;;;;;8.07;2.35;;;14.40;99.90;;;;;;5087848;28;20047;-76
2022/06/20 07:05:04;;;;;;;10.50;2.55;;;15.30;99.90;;;;;;5072544;28;20040;-76
2022/06/20 07:07:39;;;;;;;11.65;2.70;;;14.30;99.90;;;;;;5101194;28;20155;-75
2022/06/20 07:10:08;;;;;;;9.10;2.40;;;14.30;99.90;;;;;;5089499;28;20086;-76
2022/06/20 07:12:42;;;;;;;9.73;2.47;;;14.20;99.90;;;;;;5053894;28;20044;-76
2022/06/20 07:15:14;;;;;;;8.90;2.13;;;14.30;99.90;;;;;;5056455;28;20487;-76
2022/06/20 07:17:51;;;;;;;9.75;2.80;;;15.50;99.90;;;;;;5052955;28;20036;-78
2022/06/20 07:20:20;;;;;;;7.50;2.15;;;14.50;99.90;;;;;;5053004;28;20040;-79
2022/06/20 07:22:47;;;;;;;8.45;1.60;;;14.70;99.90;;;;;;5054388;28;20394;-77
2022/06/20 07:25:23;;;;;;;10.10;2.00;;;14.80;99.90;;;;;;5066926;28;20059;-78
2022/06/20 07:27:57;;;;;;;7.20;1.92;;;14.90;99.90;;;;;;5055538;28;20493;-78
2022/06/20 07:30:28;;;;;;;6.47;1.80;;;14.90;99.90;;;;;;5070030;28;20570;-78
2022/06/20 07:33:06;;;;;;;8.68;1.67;;;15.00;99.90;;;;;;5090265;28;20046;-79
2022/06/20 07:35:38;;;;;;;7.72;1.60;;;15.30;99.90;;;;;;5088529;28;20044;-79
2022/06/20 07:38:15;;;;;;;5.00;1.35;;;15.00;99.90;;;;;;5086835;28;20093;-79
2022/06/20 07:40:55;;;;;;;10.63;3.40;;;15.10;99.90;;;;;;5043239;28;20143;-77
2022/06/20 07:43:24;;;;;;;9.80;3.38;;;15.10;99.90;;;;;;5087817;28;20097;-78
2022/06/20 07:45:53;;;;;;;7.90;1.45;;;16.20;99.90;;;;;;5071438;28;20391;-77
2022/06/20 07:48:30;;;;;;;5.80;1.35;;;15.40;99.90;;;;;;5087286;28;20036;-79
2022/06/20 07:51:03;;;;;;;6.28;1.30;;;15.20;99.90;;;;;;5053299;28;20078;-78
2022/06/20 07:53:43;;;;;;;8.13;1.10;;;15.20;99.90;;;;;;5070580;28;20098;-77
2022/06/20 07:56:30;;;;;;;5.30;1.33;;;15.20;99.90;;;;;;5090108;28;20051;-78
2022/06/20 07:59:15;;;;;;;7.10;1.88;;;16.00;99.90;;;;;;5064990;28;20044;-77
2022/06/20 08:01:57;;;;;;;3.97;1.08;;;15.30;99.90;;;;;;5071445;28;20067;-76
2022/06/20 08:04:28;;;;;;;4.35;0.98;;;15.30;99.90;;;;;;5069665;28;20051;-77
2022/06/20 08:07:04;;;;;;;4.20;1.13;;;15.30;99.90;;;;;;5067564;28;20071;-78
2022/06/20 08:09:35;;;;;;;6.63;1.20;;;15.70;99.90;;;;;;5088451;28;20040;-76
2022/06/20 08:12:44;;;;;;;3.38;0.95;;;15.70;99.90;;;;;;5066420;28;20051;-76
2022/06/20 08:15:23;;;;;;;3.92;1.15;;;15.40;99.90;;;;;;4980544;28;20045;-76
2022/06/20 08:17:50;;;;;;;7.90;1.17;;;15.40;99.90;;;;;;5080148;28;20102;-78
2022/06/20 08:20:17;;;;;;;4.07;1.00;;;15.50;99.90;;;;;;5070744;28;20048;-76
2022/06/20 08:23:13;;;;;;;5.40;1.10;;;15.60;99.90;;;;;;5067904;28;20052;-76
2022/06/20 08:25:47;;;;;;;6.80;1.20;;;15.60;99.90;;;;;;5052225;28;20082;-77
2022/06/20 08:28:31;;;;;;;5.32;2.17;;;15.70;99.90;;;;;;5063581;28;20529;-77
2022/06/20 08:31:08;;;;;;;4.10;1.83;;;15.70;99.90;;;;;;5064487;28;20028;-77
2022/06/20 08:33:50;;;;;;;8.00;1.58;;;16.40;99.90;;;;;;5048934;28;20028;-77
2022/06/20 08:36:21;;;;;;;4.15;1.20;;;15.70;99.90;;;;;;5045578;28;20068;-78
2022/06/20 08:38:56;;;;;;;7.80;1.17;;;15.60;99.90;;;;;;5070633;28;20036;-76
2022/06/20 08:41:37;;;;;;;3.00;1.08;;;15.60;99.90;;;;;;5050333;28;20048;-76
2022/06/20 08:44:21;;;;;;;8.02;1.55;;;15.80;99.90;;;;;;5083130;28;20055;-77
2022/06/20 08:47:08;;;;;;;5.40;1.30;;;15.90;99.90;;;;;;5065305;28;20400;-77
2022/06/20 08:50:11;;;;;;;9.40;1.40;;;15.90;99.90;;;;;;5069427;28;20051;-78
2022/06/20 08:52:56;;;;;;;8.27;1.40;;;15.90;99.90;;;;;;5052362;28;20378;-78
2022/06/20 08:55:47;;;;;;;5.60;1.20;;;16.30;99.90;;;;;;5066199;28;20484;-78
2022/06/20 08:58:44;;;;;;;5.72;1.50;;;16.00;99.90;;;;;;5032324;28;20131;-78
2022/06/20 09:01:28;;;;;;;4.50;1.33;;;15.90;99.90;;;;;;5051003;28;20521;-78
2022/06/20 09:04:10;;;;;;;5.43;1.40;;;15.80;99.90;;;;;;5045856;28;20126;-77
2022/06/20 09:07:17;;;;;;;7.07;1.50;;;15.80;99.90;;;;;;5087239;28;20122;-78
2022/06/20 09:10:09;;;;;;;6.82;0.88;;;15.70;99.90;;;;;;5086781;28;20394;-81
2022/06/20 09:12:50;;;;;;;6.07;1.08;;;15.80;99.90;;;;;;5049149;28;20040;-78
2022/06/20 09:15:34;;;;;;;7.65;1.08;;;15.90;99.90;;;;;;5083377;28;20055;-80
2022/06/20 09:18:05;;;;;;;3.30;0.88;;;16.10;99.90;;;;;;5064553;28;20488;-78
2022/06/20 09:20:44;;;;;;;4.20;1.33;;;16.20;99.90;;;;;;5070363;28;20097;-78
2022/06/20 09:23:37;;;;;;;7.82;1.77;;;16.20;99.90;;;;;;5084303;28;20059;-77
2022/06/20 09:26:20;;;;;;;6.03;2.95;;;16.30;99.90;;;;;;5081885;28;20036;-77
2022/06/20 09:28:59;;;;;;;5.03;1.60;;;16.30;99.90;;;;;;5052120;28;20040;-78
2022/06/20 09:31:35;;;;;;;3.40;1.13;;;16.30;99.90;;;;;;5051855;28;20131;-77
2022/06/20 09:34:25;;;;;;;7.20;1.70;;;16.40;99.90;;;;;;5062829;28;20071;-78
2022/06/20 09:37:10;;;;;;;4.50;1.83;;;16.30;99.90;;;;;;5049429;28;20044;-77
2022/06/20 09:39:47;;;;;;;3.58;2.08;;;16.30;99.90;;;;;;5064066;28;20036;-77
2022/06/20 09:42:34;;;;;;;6.50;2.47;;;16.20;99.90;;;;;;5053485;28;20051;-78
2022/06/20 09:45:25;;;;;;;5.18;1.42;;;16.20;99.90;;;;;;5045475;28;20056;-77
2022/06/20 09:47:58;;;;;;;8.05;1.88;;;16.10;99.90;;;;;;5063531;28;20056;-78
2022/06/20 09:50:47;;;;;;;4.80;1.02;;;16.10;99.90;;;;;;5065512;28;20319;-77
2022/06/20 09:53:42;;;;;;;5.30;0.95;;;16.00;99.90;;;;;;5047484;28;20036;-77
2022/06/20 09:56:33;;;;;;;2.70;1.00;;;16.60;99.90;;;;;;5057500;28;20048;-77
2022/06/20 09:59:40;;;;;;;10.25;1.15;;;16.10;99.90;;;;;;5065720;28;20049;-75
2022/06/20 10:02:27;;;;;;;2.30;0.80;;;16.30;99.90;;;;;;5048234;28;20078;-77
2022/06/20 10:05:30;;;;;;;4.15;0.80;;;16.40;99.90;;;;;;5090642;28;20099;-76
2022/06/20 10:08:37;;;;;;;5.05;1.05;;;16.40;99.90;;;;;;5071988;28;20126;-78
2022/06/20 10:11:06;;;;;;;3.40;0.98;;;16.50;99.90;;;;;;5084428;28;20119;-78
2022/06/20 10:13:48;;;;;;;4.85;1.48;;;16.50;99.90;;;;;;5073564;28;20040;-79
2022/06/20 10:16:34;;;;;;;5.03;1.13;;;16.70;99.90;;;;;;5070570;28;20068;-78
2022/06/20 10:19:12;;;;;;;4.65;1.17;;;17.20;99.90;;;;;;5082871;28;20416;-79
2022/06/20 10:22:15;;;;;;;6.28;1.30;;;16.90;99.90;;;;;;5069102;28;20040;-80
2022/06/20 10:24:51;;;;;;;5.63;1.38;;;16.90;99.90;;;;;;5070875;28;20059;-79
2022/06/20 10:27:43;;;;;;;6.88;1.38;;;16.90;99.90;;;;;;5087014;28;20110;-78
2022/06/20 10:30:35;;;;;;;5.97;1.25;;;17.00;99.90;;;;;;5090322;28;20101;-77
2022/06/20 10:33:27;;;;;;;5.65;1.65;;;17.00;99.90;;;;;;5063669;28;20054;-77
2022/06/20 10:36:13;;;;;;;5.15;1.20;;;16.90;99.90;;;;;;5071175;28;20054;-79
2022/06/20 10:39:01;;;;;;;7.20;1.83;;;17.00;99.90;;;;;;5091222;28;20397;-78
2022/06/20 10:41:46;;;;;;;7.70;1.05;;;16.90;99.90;;;;;;5072298;28;20124;-78
2022/06/20 10:44:23;;;;;;;5.53;2.10;;;16.90;99.90;;;;;;5066659;28;20048;-79
2022/06/20 10:47:04;;;;;;;8.68;2.42;;;16.90;99.90;;;;;;5053131;28;20088;-78
2022/06/20 10:49:42;;;;;;;5.28;1.25;;;17.00;99.90;;;;;;5085041;28;20040;-78
2022/06/20 10:52:23;;;;;;;4.63;1.10;;;17.10;99.90;;;;;;5070787;28;20028;-77
2022/06/20 10:54:58;;;;;;;5.63;1.48;;;17.20;99.90;;;;;;5053569;28;20537;-78
2022/06/20 10:57:48;;;;;;;4.68;1.20;;;17.30;99.90;;;;;;5068170;28;20037;-78
2022/06/20 11:00:20;;;;;;;5.03;1.25;;;17.30;99.90;;;;;;5083955;28;20036;-77
2022/06/20 11:03:31;;;;;;;3.38;1.23;;;17.40;99.90;;;;;;5072659;28;20127;-77
2022/06/20 11:06:25;;;;;;;3.13;1.27;;;17.50;99.90;;;;;;5051027;28;20067;-77
2022/06/20 11:09:04;;;;;;;4.50;1.00;;;17.40;99.90;;;;;;5081927;28;20116;-79
2022/06/20 11:11:32;;;;;;;4.53;1.08;;;17.50;99.90;;;;;;5088167;28;20058;-79
2022/06/20 11:14:33;;;;;;;4.28;1.13;;;17.50;99.90;;;;;;5087246;28;20036;-78
2022/06/20 11:17:10;;;;;;;5.80;1.13;;;17.60;99.90;;;;;;5071817;28;20052;-79
2022/06/20 11:20:09;;;;;;;6.70;1.23;;;17.70;99.90;;;;;;5072841;28;20123;-78
2022/06/20 11:22:43;;;;;;;6.43;2.03;;;17.80;99.90;;;;;;5053390;28;20496;-76
2022/06/20 11:25:26;;;;;;;7.53;2.63;;;17.80;99.90;;;;;;5031506;28;20057;-77
2022/06/20 11:28:18;;;;;;;8.23;1.48;;;17.90;99.90;;;;;;5046753;28;20051;-77
2022/06/20 11:31:10;;;;;;;7.47;1.67;;;18.00;99.90;;;;;;5062437;28;20500;-79
2022/06/20 11:34:04;;;;;;;7.65;1.50;;;18.00;99.90;;;;;;5065699;28;20048;-77
2022/06/20 11:36:51;;;;;;;4.78;1.48;;;17.90;99.90;;;;;;5042664;28;20045;-78
2022/06/20 11:39:29;;;;;;;10.85;1.38;;;17.90;99.90;;;;;;5042576;28;20049;-78
2022/06/20 11:42:05;;;;;;;8.20;1.80;;;17.80;99.90;;;;;;5049341;28;20052;-78
2022/06/20 11:44:43;;;;;;;4.82;1.33;;;17.80;99.90;;;;;;5050577;28;20037;-78
2022/06/20 11:47:18;;;;;;;5.53;1.20;;;17.90;99.90;;;;;;5032435;28;20115;-78
2022/06/20 11:50:12;;;;;;;3.78;1.00;;;18.00;99.90;;;;;;5031315;28;20045;-78
2022/06/20 11:52:51;;;;;;;4.45;1.05;;;18.90;99.90;;;;;;5037333;28;20053;-78
2022/06/20 11:55:35;;;;;;;4.53;1.02;;;18.30;99.90;;;;;;5031469;28;20056;-78
2022/06/20 11:58:20;;;;;;;6.00;1.50;;;18.30;99.90;;;;;;5049109;28;20514;-78
2022/06/20 12:00:52;;;;;;;6.70;1.20;;;18.30;99.90;;;;;;5047646;28;20476;-78
2022/06/20 12:03:41;;;;;;;6.05;1.30;;;18.10;99.90;;;;;;5048539;28;20029;-78
2022/06/20 12:06:34;;;;;;;1.90;1.20;;;18.10;99.90;;;;;;5048810;28;20130;-77
2022/06/20 12:09:04;;;;;;;10.57;1.30;;;18.30;99.90;;;;;;5046374;28;20554;-77
2022/06/20 12:11:29;;;;;;;5.32;1.23;;;18.50;99.90;;;;;;5049240;28;20044;-77
2022/06/20 12:14:17;;;;;;;8.40;0.98;;;18.50;99.90;;;;;;5048331;28;20071;-77
2022/06/20 12:16:48;;;;;;;3.45;0.85;;;18.40;99.90;;;;;;5047984;28;20095;-76
2022/06/20 12:25:24;;;;;;;2.00;0.80;;;18.80;99.90;;;;;;5003740;28;20058;-75
2022/06/20 12:27:51;;;;;;;3.15;0.70;;;19.00;99.90;;;;;;5042775;28;20059;-75
2022/06/20 12:30:17;;;;;;;3.00;0.80;;;19.10;99.90;;;;;;5062671;28;20083;-76
2022/06/20 12:32:46;;;;;;;2.65;1.05;;;19.20;99.90;;;;;;5064320;28;20066;-76
2022/06/20 12:35:27;;;;;;;8.05;1.10;;;19.40;99.90;;;;;;5065756;28;20076;-79
2022/06/20 12:38:25;;;;;;;4.70;1.00;;;19.40;99.90;;;;;;5060211;28;20477;-80
2022/06/20 12:40:57;;;;;;;5.93;1.10;;;19.40;99.90;;;;;;5034858;28;20060;-79
2022/06/20 12:43:31;;;;;;;6.38;1.27;;;19.20;99.90;;;;;;5062836;28;20111;-78
2022/06/20 12:46:06;;;;;;;;;;;19.00;99.90;;;;;;5048779;28;20483;-79
2022/06/20 12:49:12;;;;;;;3.35;0.98;;;18.80;99.90;;;;;;5064631;28;20106;-80
2022/06/20 12:51:48;;;;;;;8.23;1.20;;;18.70;99.90;;;;;;5064492;28;20047;-79
2022/06/20 12:54:38;;;;;;;4.07;1.17;;;18.70;99.90;;;;;;5046909;28;20526;-75
2022/06/20 12:57:19;;;;;;;4.28;1.02;;;18.70;99.90;;;;;;5065829;28;20041;-76
2022/06/20 13:00:34;;;;;;;4.40;1.17;;;18.80;99.90;;;;;;5061637;28;20040;-76
2022/06/20 13:03:31;;;;;;;5.25;1.10;;;18.70;99.90;;;;;;5006391;28;20052;-76
2022/06/20 13:06:17;;;;;;;9.05;1.30;;;18.50;99.90;;;;;;5025646;28;20045;-77
2022/06/20 13:08:55;;;;;;;3.95;1.25;;;18.60;99.90;;;;;;5055326;28;20052;-76
2022/06/20 13:11:42;;;;;;;2.83;0.73;;;19.00;99.90;;;;;;5068815;28;20032;-77
2022/06/20 13:14:29;;;;;;;2.20;1.00;;;18.60;99.90;;;;;;5044706;28;20090;-77
2022/06/20 13:17:00;;;;;;;4.00;1.02;;;18.70;99.90;;;;;;5064875;28;20076;-77
2022/06/20 13:19:29;;;;;;;1.90;1.00;;;18.90;99.90;;;;;;5061851;28;20127;-78
2022/06/20 13:22:28;;;;;;;3.13;0.88;;;19.10;99.90;;;;;;5063760;28;20076;-77
2022/06/20 13:24:59;;;;;;;4.82;0.82;;;19.20;99.90;;;;;;5064100;28;20044;-77
2022/06/20 13:27:32;;;;;;;4.53;1.67;;;19.40;99.90;;;;;;5059188;28;20045;-78
2022/06/20 13:30:04;;;;;;;8.75;2.38;;;19.40;99.90;;;;;;5061256;28;20045;-78
2022/06/20 13:32:29;;;;;;;5.18;1.98;;;19.40;99.90;;;;;;5059793;28;20040;-77
2022/06/20 13:35:26;;;;;;;4.57;1.27;;;19.40;99.90;;;;;;5065313;28;20055;-77
2022/06/20 13:38:16;;;;;;;3.83;1.48;;;19.60;99.90;;;;;;5061546;28;20049;-76
2022/06/20 13:41:03;;;;;;;5.85;1.60;;;19.70;99.90;;;;;;5044047;28;20476;-78
2022/06/20 13:43:57;;;;;;;4.97;1.13;;;19.50;99.90;;;;;;5062284;28;20106;-77
2022/06/20 13:46:41;;;;;;;5.35;1.55;;;19.50;99.90;;;;;;5067346;28;20040;-78
2022/06/20 13:49:26;;;;;;;3.42;1.23;;;19.50;99.90;;;;;;5063860;28;20135;-77
2022/06/20 13:51:55;;;;;;;4.68;1.20;;;19.40;99.90;;;;;;5049534;28;20059;-77
2022/06/20 13:54:58;;;;;;;2.08;0.93;;;19.80;99.90;;;;;;5068476;28;20045;-78